Time;durP1;ratioP1;P1;durP2;ratioP2;P2;SDS_P1;SDS_P2;PMS_P1;PMS_P2;Temp;Humidity;BMP_temperature;BMP_pressure;BME280_temperature;BME280_humidity;BME280_pressure;Samples;Min_cycle;Max_cycle;Signal;HPM_P1;HPM_P2
2023/04/27 00:01:09;;;;;;;0.50;0.50;;;;;;;12.47;85.41;98889.38;5100449;28;20218;-60
2023/04/27 00:03:36;;;;;;;0.40;0.40;;;;;;;12.50;85.40;98894.38;5106392;28;20199;-60
2023/04/27 00:06:03;;;;;;;0.60;0.60;;;;;;;12.47;84.93;98899.69;5097336;28;20633;-60
2023/04/27 00:08:30;;;;;;;0.50;0.50;;;;;;;12.51;85.03;98902.03;5096784;28;20686;-60
2023/04/27 00:10:57;;;;;;;0.50;0.50;;;;;;;12.51;84.67;98904.59;5105273;28;20234;-60
2023/04/27 00:13:26;;;;;;;0.50;0.50;;;;;;;12.51;85.19;98909.72;5105600;28;20613;-60
2023/04/27 00:15:53;;;;;;;0.60;0.60;;;;;;;12.50;84.67;98905.47;5109068;28;20206;-60
2023/04/27 00:18:20;;;;;;;0.53;0.53;;;;;;;12.43;84.73;98893.84;5100755;28;20206;-60
2023/04/27 00:20:47;;;;;;;0.70;0.70;;;;;;;12.49;84.94;98911.53;5102266;28;20219;-60
2023/04/27 00:23:13;;;;;;;0.60;0.60;;;;;;;12.44;84.53;98910.09;5107149;28;20207;-60
2023/04/27 00:25:40;;;;;;;0.50;0.50;;;;;;;12.43;84.72;98914.41;5104756;28;20226;-59
2023/04/27 00:28:07;;;;;;;0.57;0.57;;;;;;;12.40;84.79;98919.69;5104613;28;20194;-60
2023/04/27 00:30:35;;;;;;;0.43;0.43;;;;;;;12.38;84.62;98926.59;5102344;28;20259;-61
2023/04/27 00:33:02;;;;;;;1.20;1.20;;;;;;;12.30;85.01;98913.28;5105087;27;20690;-59
2023/04/27 00:35:29;;;;;;;0.40;0.40;;;;;;;12.37;84.45;98922.41;5104177;28;20692;-60
2023/04/27 00:37:56;;;;;;;0.40;0.40;;;;;;;12.37;84.78;98929.25;5105771;28;20199;-60
2023/04/27 00:40:22;;;;;;;0.50;0.50;;;;;;;12.37;84.27;98930.09;5107038;28;20635;-60
2023/04/27 00:42:49;;;;;;;0.70;0.70;;;;;;;12.37;84.09;98940.38;5106162;28;20669;-60
2023/04/27 00:45:16;;;;;;;0.60;0.60;;;;;;;12.37;83.79;98936.97;5104413;28;20239;-60
2023/04/27 00:47:44;;;;;;;0.97;0.97;;;;;;;12.28;83.28;98927.91;5101053;28;20202;-60
2023/04/27 00:50:11;;;;;;;0.50;0.50;;;;;;;12.29;83.09;98937.31;5101289;28;20191;-60
2023/04/27 00:52:42;;;;;;;0.40;0.40;;;;;;;12.16;83.56;98931.03;5104469;28;20195;-60
2023/04/27 00:55:09;;;;;;;0.60;0.60;;;;;;;12.22;83.69;98937.63;5108364;28;20205;-60
2023/04/27 00:57:39;;;;;;;0.80;0.80;;;;;;;12.16;83.62;98928.47;5100824;28;20199;-60
2023/04/27 01:00:09;;;;;;;0.70;0.70;;;;;;;12.13;82.80;98938.88;5101295;28;20584;-59
2023/04/27 01:02:36;;;;;;;0.50;0.50;;;;;;;12.18;83.04;98954.13;5098078;28;20202;-59
2023/04/27 01:05:07;;;;;;;0.40;0.40;;;;;;;12.19;82.70;98950.63;5095523;28;20257;-60
2023/04/27 01:07:37;;;;;;;0.50;0.50;;;;;;;12.16;82.18;98961.88;5098353;28;20659;-59
2023/04/27 01:10:05;;;;;;;0.40;0.40;;;;;;;12.05;81.97;98943.53;5099621;28;20564;-59
2023/04/27 01:12:31;;;;;;;0.50;0.50;;;;;;;12.17;81.75;98968.69;5102188;28;20203;-60
2023/04/27 01:14:58;;;;;;;0.57;0.57;;;;;;;12.12;81.32;98960.31;5101821;28;20199;-60
2023/04/27 01:17:25;;;;;;;0.47;0.47;;;;;;;12.15;80.71;98970.47;5104122;28;20210;-60
2023/04/27 01:19:54;;;;;;;0.60;0.60;;;;;;;12.15;80.56;98979.94;5105265;28;20228;-59
2023/04/27 01:22:25;;;;;;;0.40;0.40;;;;;;;12.17;80.49;98980.69;5106080;28;20238;-59
2023/04/27 01:24:53;;;;;;;0.40;0.40;;;;;;;12.03;80.37;98971.00;5097094;28;20211;-60
2023/04/27 01:27:20;;;;;;;0.50;0.50;;;;;;;12.02;80.39;98985.59;5101096;28;20230;-60
2023/04/27 01:29:47;;;;;;;0.50;0.50;;;;;;;11.97;79.73;98974.69;5100956;28;20198;-60
2023/04/27 01:32:13;;;;;;;0.50;0.50;;;;;;;12.08;79.60;98990.47;5105316;28;20681;-60
2023/04/27 01:34:40;;;;;;;0.50;0.50;;;;;;;12.06;79.93;98992.25;5096597;28;20222;-60
2023/04/27 01:37:07;;;;;;;0.50;0.50;;;;;;;12.10;80.31;98995.53;5107330;28;20198;-59
2023/04/27 01:39:34;;;;;;;0.40;0.40;;;;;;;12.00;80.47;98976.28;5095727;28;20199;-60
2023/04/27 01:42:02;;;;;;;0.40;0.40;;;;;;;12.07;79.91;98987.97;5102020;28;20574;-60
2023/04/27 01:44:29;;;;;;;0.60;0.60;;;;;;;12.10;80.39;98998.13;5093790;28;20215;-59
2023/04/27 01:46:56;;;;;;;0.60;0.60;;;;;;;12.08;80.16;99002.50;5095249;28;20207;-60
2023/04/27 01:49:23;;;;;;;0.47;0.47;;;;;;;11.98;80.30;98990.94;5104476;28;20214;-60
2023/04/27 01:51:50;;;;;;;0.60;0.60;;;;;;;11.97;80.44;99008.06;5099451;28;20195;-60
2023/04/27 01:54:17;;;;;;;0.77;0.77;;;;;;;11.96;80.46;99005.56;5102796;28;20205;-60
2023/04/27 01:56:43;;;;;;;0.50;0.50;;;;;;;11.92;80.63;99009.97;5091853;28;20732;-60
2023/04/27 01:59:12;;;;;;;0.50;0.50;;;;;;;11.92;80.87;99004.03;5106592;28;20528;-60
2023/04/27 02:01:38;;;;;;;0.40;0.40;;;;;;;11.95;80.17;99007.31;5096584;28;20218;-60
2023/04/27 02:04:05;;;;;;;0.50;0.50;;;;;;;11.93;79.92;99015.97;5097179;28;20207;-60
2023/04/27 02:06:32;;;;;;;0.43;0.43;;;;;;;11.89;80.32;99019.59;5101355;28;20290;-60
2023/04/27 02:08:59;;;;;;;0.40;0.40;;;;;;;11.92;80.44;99014.31;5101623;28;20586;-59
2023/04/27 02:11:26;;;;;;;0.50;0.50;;;;;;;11.92;79.89;99019.44;5107058;28;20187;-60
2023/04/27 02:13:53;;;;;;;0.70;0.70;;;;;;;11.96;80.14;99011.53;5096017;28;20203;-59
2023/04/27 02:16:21;;;;;;;0.43;0.43;;;;;;;11.97;79.91;99022.66;5112432;28;20199;-60
2023/04/27 02:18:48;;;;;;;0.50;0.50;;;;;;;12.03;79.66;99022.38;5104177;28;20275;-60
2023/04/27 02:21:14;;;;;;;0.50;0.50;;;;;;;12.00;79.53;99027.66;5107236;28;20623;-60
2023/04/27 02:23:41;;;;;;;0.43;0.43;;;;;;;12.00;79.06;99032.78;5108487;28;20191;-60
2023/04/27 02:26:08;;;;;;;0.50;0.50;;;;;;;12.04;79.21;99034.34;5106161;28;20210;-60
2023/04/27 02:28:35;;;;;;;0.40;0.40;;;;;;;12.02;79.53;99025.84;5103736;28;20194;-60
2023/04/27 02:31:02;;;;;;;0.70;0.70;;;;;;;11.97;78.88;99033.75;5104287;28;20200;-60
2023/04/27 02:33:30;;;;;;;0.47;0.47;;;;;;;12.00;78.63;99035.38;5105158;28;20202;-60
2023/04/27 02:35:57;;;;;;;0.50;0.50;;;;;;;12.01;78.49;99030.19;5106783;28;20222;-60
2023/04/27 02:38:23;;;;;;;0.50;0.50;;;;;;;12.02;78.75;99031.81;5097309;28;20225;-60
2023/04/27 02:40:53;;;;;;;0.50;0.50;;;;;;;12.05;78.59;99030.88;5104779;28;20210;-60
2023/04/27 02:43:20;;;;;;;0.50;0.50;;;;;;;12.03;78.68;99023.22;5105905;28;20229;-60
2023/04/27 02:45:47;;;;;;;0.53;0.53;;;;;;;12.12;79.00;99039.97;5109910;28;20218;-60
2023/04/27 02:48:14;;;;;;;0.40;0.40;;;;;;;12.15;78.33;99042.41;5107523;28;20207;-60
2023/04/27 02:50:43;;;;;;;0.60;0.60;;;;;;;12.17;77.55;99045.78;5102750;28;20204;-59
2023/04/27 02:53:10;;;;;;;0.50;0.50;;;;;;;12.20;78.41;99039.66;5103570;28;20190;-60
2023/04/27 02:55:37;;;;;;;0.50;0.50;;;;;;;12.20;78.48;99040.50;5101227;28;20195;-60
2023/04/27 02:58:04;;;;;;;0.47;0.47;;;;;;;12.26;77.76;99055.66;5098328;28;20204;-60
2023/04/27 03:00:30;;;;;;;0.40;0.40;;;;;;;12.29;77.62;99050.38;5100430;28;20230;-60
2023/04/27 03:02:57;;;;;;;0.50;0.50;;;;;;;12.32;77.27;99050.25;5104231;28;20207;-60
2023/04/27 03:05:27;;;;;;;0.50;0.50;;;;;;;12.29;77.23;99055.53;5103676;28;20648;-60
2023/04/27 03:07:55;;;;;;;0.40;0.40;;;;;;;12.26;77.16;99049.69;5102835;28;21128;-60
2023/04/27 03:10:22;;;;;;;0.97;0.97;;;;;;;12.15;76.72;99041.63;5105693;28;20218;-60
2023/04/27 03:12:48;;;;;;;0.60;0.60;;;;;;;12.18;76.10;99056.91;5106540;28;20199;-59
2023/04/27 03:15:15;;;;;;;0.60;0.60;;;;;;;12.07;76.74;99052.19;5103634;28;20205;-60
2023/04/27 03:17:42;;;;;;;0.50;0.50;;;;;;;12.13;77.05;99064.78;5098031;28;20206;-60
2023/04/27 03:20:10;;;;;;;0.50;0.50;;;;;;;12.09;76.19;99058.09;5107169;28;20194;-61
2023/04/27 03:22:37;;;;;;;0.60;0.60;;;;;;;12.07;76.76;99062.47;5107316;28;20191;-60
2023/04/27 03:25:07;;;;;;;0.60;0.60;;;;;;;12.07;76.45;99070.19;5104893;28;20305;-59
2023/04/27 03:27:34;;;;;;;0.60;0.60;;;;;;;12.01;76.77;99075.56;5106316;28;20297;-60
2023/04/27 03:30:00;;;;;;;0.50;0.50;;;;;;;11.98;76.31;99080.84;5107058;28;20203;-60
2023/04/27 03:32:27;;;;;;;0.47;0.47;;;;;;;11.97;76.43;99074.03;5111184;28;20248;-60
2023/04/27 03:34:54;;;;;;;0.60;0.60;;;;;;;12.02;76.33;99074.66;5101059;28;20264;-60
2023/04/27 03:37:21;;;;;;;0.60;0.60;;;;;;;11.96;76.91;99074.91;5100200;28;20198;-60
2023/04/27 03:39:47;;;;;;;0.60;0.60;;;;;;;12.00;76.75;99082.44;5103006;28;20207;-60
2023/04/27 03:42:15;;;;;;;0.50;0.50;;;;;;;11.96;77.10;99086.03;5106210;28;20207;-60
2023/04/27 03:44:42;;;;;;;0.60;0.60;;;;;;;11.91;77.70;99080.25;5101935;28;20208;-60
2023/04/27 03:47:09;;;;;;;0.50;0.50;;;;;;;11.91;77.87;99084.56;5107142;28;20352;-59
2023/04/27 03:49:36;;;;;;;0.50;0.50;;;;;;;11.91;77.68;99092.25;5103872;28;20194;-59
2023/04/27 03:52:03;;;;;;;0.60;0.60;;;;;;;11.82;78.21;99087.50;5105495;28;20199;-59
2023/04/27 03:54:31;;;;;;;0.60;0.60;;;;;;;11.87;78.79;99091.53;5108294;28;20195;-60
2023/04/27 03:56:58;;;;;;;0.50;0.50;;;;;;;12.03;77.81;99109.75;5106931;28;20198;-60
2023/04/27 03:59:28;;;;;;;0.50;0.50;;;;;;;12.01;78.33;99111.53;5103581;28;20732;-60
2023/04/27 04:01:56;;;;;;;0.53;0.53;;;;;;;12.06;78.80;99114.75;5099404;28;20223;-60
2023/04/27 04:04:23;;;;;;;0.50;0.50;;;;;;;12.11;79.45;99112.84;5109230;28;20203;-60
2023/04/27 04:06:50;;;;;;;0.60;0.60;;;;;;;12.16;78.94;99115.22;5106673;28;20691;-59
2023/04/27 04:09:16;;;;;;;0.47;0.47;;;;;;;12.20;79.00;99122.75;5098574;28;20199;-59
2023/04/27 04:11:43;;;;;;;0.50;0.50;;;;;;;12.27;79.51;99123.31;5102314;28;20199;-60
2023/04/27 04:14:10;;;;;;;0.50;0.50;;;;;;;12.30;79.56;99126.59;5099591;28;20686;-60
2023/04/27 04:16:38;;;;;;;0.43;0.43;;;;;;;12.29;79.14;99124.94;5104066;28;20200;-60
2023/04/27 04:19:05;;;;;;;0.50;0.50;;;;;;;12.32;79.61;99132.50;5095908;28;20214;-60
2023/04/27 04:21:32;;;;;;;0.40;0.40;;;;;;;12.38;79.74;99133.97;5103542;28;20195;-60
2023/04/27 04:23:59;;;;;;;0.60;0.60;;;;;;;12.44;80.15;99134.56;5097612;28;20198;-60
2023/04/27 04:26:26;;;;;;;0.57;0.57;;;;;;;12.41;79.11;99126.97;5099746;28;20214;-60
2023/04/27 04:28:52;;;;;;;0.50;0.50;;;;;;;12.47;78.27;99147.28;5101699;28;20673;-60
2023/04/27 04:31:20;;;;;;;0.50;0.50;;;;;;;12.45;78.77;99148.25;5100888;28;20202;-62
2023/04/27 04:33:48;;;;;;;0.60;0.60;;;;;;;12.38;77.89;99137.38;5103345;28;20195;-61
2023/04/27 04:36:15;;;;;;;0.47;0.47;;;;;;;12.36;76.72;99149.47;5105169;28;20199;-61
2023/04/27 04:38:42;;;;;;;0.50;0.50;;;;;;;12.29;78.00;99142.91;5101102;28;20198;-61
2023/04/27 04:41:09;;;;;;;0.50;0.50;;;;;;;12.31;78.74;99153.16;5103201;28;20727;-61
2023/04/27 04:43:35;;;;;;;0.60;0.60;;;;;;;12.32;78.80;99147.94;5104042;28;20199;-61
2023/04/27 04:46:02;;;;;;;0.40;0.40;;;;;;;12.39;78.35;99149.34;5099623;28;20215;-61
2023/04/27 04:48:29;;;;;;;0.50;0.50;;;;;;;12.44;79.18;99154.31;5099296;28;20198;-61
2023/04/27 04:50:57;;;;;;;0.60;0.60;;;;;;;12.44;77.75;99152.56;5100209;28;20567;-63
2023/04/27 04:53:25;;;;;;;0.60;0.60;;;;;;;12.49;76.85;99160.94;5101794;28;20202;-61
2023/04/27 04:55:51;;;;;;;0.70;0.70;;;;;;;12.42;77.50;99164.66;5104614;28;20271;-61
2023/04/27 04:58:18;;;;;;;0.47;0.47;;;;;;;12.44;77.02;99162.84;5099160;27;20229;-61
2023/04/27 05:00:45;;;;;;;0.40;0.40;;;;;;;12.44;78.30;99172.31;5102585;28;20226;-60
2023/04/27 05:03:12;;;;;;;0.60;0.60;;;;;;;12.31;77.15;99151.38;5101301;28;20591;-61
2023/04/27 05:05:38;;;;;;;0.50;0.50;;;;;;;12.50;77.67;99178.00;5098935;28;20710;-61
2023/04/27 05:08:06;;;;;;;0.60;0.60;;;;;;;12.55;76.93;99188.97;5103210;28;20213;-61
2023/04/27 05:10:33;;;;;;;0.50;0.50;;;;;;;12.55;77.63;99186.38;5097043;28;20195;-61
2023/04/27 05:13:00;;;;;;;0.50;0.50;;;;;;;12.57;78.28;99189.72;5097303;28;20267;-61
2023/04/27 05:15:27;;;;;;;0.50;0.50;;;;;;;12.54;76.74;99183.84;5098953;28;20682;-61
2023/04/27 05:17:54;;;;;;;0.60;0.60;;;;;;;12.47;77.80;99183.28;5107136;28;20198;-61
2023/04/27 05:20:20;;;;;;;0.50;0.50;;;;;;;12.52;78.75;99198.53;5094793;28;20237;-62
2023/04/27 05:22:47;;;;;;;0.40;0.40;;;;;;;12.50;77.42;99193.44;5102937;28;20213;-61
2023/04/27 05:25:15;;;;;;;0.70;0.70;;;;;;;12.54;77.22;99194.97;5106304;28;20238;-62
2023/04/27 05:27:42;;;;;;;0.50;0.50;;;;;;;12.57;78.13;99192.28;5098291;28;20207;-61
2023/04/27 05:30:10;;;;;;;0.60;0.60;;;;;;;12.65;77.83;99194.56;5100646;28;20202;-60
2023/04/27 05:32:36;;;;;;;0.57;0.57;;;;;;;12.70;77.06;99199.50;5103600;28;20198;-61
2023/04/27 05:35:04;;;;;;;0.63;0.63;;;;;;;12.72;74.98;99197.69;5100472;28;20214;-61
2023/04/27 05:37:31;;;;;;;0.50;0.50;;;;;;;12.74;73.78;99204.44;5101706;28;20191;-61
2023/04/27 05:39:58;;;;;;;0.63;0.63;;;;;;;12.77;73.67;99195.75;5097696;28;20272;-61
2023/04/27 05:42:26;;;;;;;0.57;0.57;;;;;;;12.81;73.76;99199.88;5103645;28;20650;-61
2023/04/27 05:44:53;;;;;;;0.50;0.50;;;;;;;12.82;74.09;99199.00;5106825;28;20203;-62
2023/04/27 05:47:19;;;;;;;0.40;0.40;;;;;;;12.80;74.21;99205.91;5107136;28;20647;-61
2023/04/27 05:49:51;;;;;;;0.60;0.60;;;;;;;12.77;73.45;99208.63;5103397;28;20203;-61
2023/04/27 05:52:18;;;;;;;0.60;0.60;;;;;;;12.76;72.95;99212.13;5104558;28;20306;-61
2023/04/27 05:54:48;;;;;;;0.43;0.43;;;;;;;12.74;72.96;99214.75;5102986;28;20576;-61
2023/04/27 05:57:15;;;;;;;0.60;0.60;;;;;;;12.72;73.32;99223.41;5108248;28;20196;-61
2023/04/27 05:59:43;;;;;;;0.47;0.47;;;;;;;12.74;72.88;99227.59;5104512;28;20269;-59
2023/04/27 06:02:10;;;;;;;0.50;0.50;;;;;;;12.67;73.18;99226.16;5100501;28;20637;-59
2023/04/27 06:04:37;;;;;;;0.50;0.50;;;;;;;12.66;74.67;99236.53;5103192;28;20196;-60
2023/04/27 06:07:08;;;;;;;0.50;0.50;;;;;;;12.69;72.98;99234.69;5102426;28;20211;-61
2023/04/27 06:09:35;;;;;;;0.50;0.50;;;;;;;12.70;73.26;99230.38;5106642;28;20311;-60
2023/04/27 06:12:03;;;;;;;0.50;0.50;;;;;;;12.44;75.10;99191.13;5107553;28;20206;-60
2023/04/27 06:14:30;;;;;;;0.40;0.40;;;;;;;12.69;75.12;99223.56;5108185;28;20686;-60
2023/04/27 06:16:58;;;;;;;0.60;0.60;;;;;;;12.73;76.84;99227.69;5103829;28;20678;-62
2023/04/27 06:19:25;;;;;;;0.60;0.60;;;;;;;12.70;74.75;99235.53;5102310;28;21841;-62
2023/04/27 06:21:53;;;;;;;0.40;0.40;;;;;;;12.62;75.50;99228.94;5101398;28;20750;-62
2023/04/27 06:24:21;;;;;;;0.50;0.50;;;;;;;12.67;76.83;99230.47;5103754;28;20219;-62
2023/04/27 06:26:47;;;;;;;0.60;0.60;;;;;;;12.67;75.91;99223.59;5102017;27;20223;-62
2023/04/27 06:29:14;;;;;;;0.50;0.50;;;;;;;12.69;75.54;99223.56;5098773;28;20221;-62
2023/04/27 06:31:41;;;;;;;0.47;0.47;;;;;;;12.71;75.14;99226.88;5100169;28;20248;-61
2023/04/27 06:34:09;;;;;;;0.50;0.50;;;;;;;12.64;74.98;99214.28;5105550;28;20200;-62
2023/04/27 06:36:36;;;;;;;0.50;0.50;;;;;;;12.80;76.12;99232.47;5110100;28;20210;-62
2023/04/27 06:39:03;;;;;;;0.50;0.50;;;;;;;12.78;75.74;99236.03;5105494;28;20256;-61
2023/04/27 06:41:29;;;;;;;0.57;0.57;;;;;;;12.76;75.99;99235.25;5101568;28;20206;-62
2023/04/27 06:43:56;;;;;;;0.40;0.40;;;;;;;12.78;74.83;99233.44;5106163;28;20199;-62
2023/04/27 06:46:23;;;;;;;0.50;0.50;;;;;;;12.75;75.82;99234.41;5106085;28;20226;-61
2023/04/27 06:48:51;;;;;;;0.50;0.50;;;;;;;12.82;76.49;99229.84;5102393;28;20211;-61
2023/04/27 06:51:19;;;;;;;0.50;0.50;;;;;;;12.80;75.62;99234.22;5104030;28;20234;-61
2023/04/27 06:53:46;;;;;;;0.50;0.50;;;;;;;12.89;76.26;99236.44;5100438;28;20203;-60
2023/04/27 06:56:13;;;;;;;0.50;0.50;;;;;;;12.95;76.03;99237.00;5101831;28;20685;-60
2023/04/27 06:58:39;;;;;;;0.43;0.43;;;;;;;13.04;75.27;99240.91;5098198;28;20210;-60
2023/04/27 07:01:06;;;;;;;0.40;0.40;;;;;;;13.05;74.71;99245.16;5106896;28;20227;-61
2023/04/27 07:03:35;;;;;;;0.60;0.60;;;;;;;13.11;76.32;99235.47;5105547;28;20199;-60
2023/04/27 07:06:02;;;;;;;0.47;0.47;;;;;;;13.21;74.86;99241.06;5106809;28;20246;-67
2023/04/27 07:08:30;;;;;;;0.50;0.50;;;;;;;13.33;75.46;99237.09;5100572;28;21029;-60
2023/04/27 07:10:56;;;;;;;0.40;0.40;;;;;;;13.38;76.06;99235.16;5104940;28;20202;-61
2023/04/27 07:13:24;;;;;;;0.60;0.60;;;;;;;13.43;76.13;99244.38;5103368;28;20230;-61
2023/04/27 07:15:56;;;;;;;0.60;0.60;;;;;;;13.54;75.43;99249.88;5103337;28;20253;-61
2023/04/27 07:18:23;;;;;;;0.50;0.50;;;;;;;13.59;71.90;99242.78;5104520;28;20656;-59
2023/04/27 07:20:50;;;;;;;0.50;0.50;;;;;;;13.62;73.30;99245.22;5103174;28;20251;-59
2023/04/27 07:23:16;;;;;;;0.50;0.50;;;;;;;13.68;73.47;99244.94;5109013;28;20699;-59
2023/04/27 07:25:45;;;;;;;0.40;0.40;;;;;;;13.76;72.78;99242.03;5106365;28;20575;-60
2023/04/27 07:28:12;;;;;;;0.50;0.50;;;;;;;13.83;70.39;99245.97;5105301;28;20242;-59
2023/04/27 07:30:39;;;;;;;0.63;0.63;;;;;;;13.94;69.76;99246.31;5104695;28;20250;-59
2023/04/27 07:33:06;;;;;;;0.60;0.60;;;;;;;14.02;68.02;99243.41;5105187;28;20289;-59
2023/04/27 07:35:33;;;;;;;0.60;0.60;;;;;;;14.11;67.50;99248.13;5107814;28;20201;-59
2023/04/27 07:38:01;;;;;;;0.50;0.50;;;;;;;14.18;66.95;99252.91;5098813;28;20675;-60
2023/04/27 07:40:28;;;;;;;0.50;0.50;;;;;;;14.22;65.66;99245.84;5106489;28;20672;-59
2023/04/27 07:42:57;;;;;;;0.50;0.50;;;;;;;14.32;66.65;99249.69;5103736;28;20199;-59
2023/04/27 07:45:30;;;;;;;0.53;0.53;;;;;;;14.37;66.18;99244.34;5104115;28;20281;-59
2023/04/27 07:47:58;;;;;;;0.40;0.40;;;;;;;14.55;67.04;99249.44;5100889;28;20224;-60
2023/04/27 07:50:26;;;;;;;0.40;0.40;;;;;;;14.73;67.07;99241.72;5102378;28;20210;-59
2023/04/27 07:52:53;;;;;;;0.50;0.50;;;;;;;14.86;64.77;99247.94;5101026;28;20271;-61
2023/04/27 07:55:21;;;;;;;0.57;0.57;;;;;;;14.95;63.16;99242.31;5098603;28;20572;-59
2023/04/27 07:57:47;;;;;;;0.40;0.40;;;;;;;15.11;64.56;99243.22;5102400;28;20679;-59
2023/04/27 08:00:16;;;;;;;0.53;0.53;;;;;;;15.17;64.43;99240.31;5097053;28;20812;-59
2023/04/27 08:02:43;;;;;;;0.43;0.43;;;;;;;15.21;61.26;99244.41;5102052;28;20241;-59
2023/04/27 08:05:10;;;;;;;0.57;0.57;;;;;;;15.18;62.03;99229.09;5102866;28;20202;-59
2023/04/27 08:07:37;;;;;;;0.57;0.57;;;;;;;15.37;60.19;99245.28;5103445;28;20218;-59
2023/04/27 08:10:04;;;;;;;0.53;0.53;;;;;;;15.54;63.17;99237.50;5102300;28;20251;-59
2023/04/27 08:12:32;;;;;;;0.43;0.43;;;;;;;15.65;61.74;99237.78;5101013;28;20210;-59
2023/04/27 08:14:59;;;;;;;0.40;0.40;;;;;;;15.74;61.71;99239.88;5102696;28;20619;-60
2023/04/27 08:17:27;;;;;;;0.43;0.43;;;;;;;15.84;59.98;99244.53;5101989;28;20203;-61
2023/04/27 08:19:54;;;;;;;0.40;0.40;;;;;;;15.92;61.01;99237.22;5105406;28;20198;-60
2023/04/27 08:22:20;;;;;;;0.50;0.50;;;;;;;15.99;61.52;99229.06;5105481;28;20201;-60
2023/04/27 08:24:47;;;;;;;0.43;0.43;;;;;;;15.91;62.50;99209.69;5101302;28;20207;-60
2023/04/27 08:27:15;;;;;;;0.40;0.40;;;;;;;16.13;63.86;99230.84;5106500;28;20709;-60
2023/04/27 08:29:45;;;;;;;0.50;0.50;;;;;;;16.22;62.91;99232.91;5108330;28;20681;-60
2023/04/27 08:32:12;;;;;;;0.50;0.50;;;;;;;16.26;61.20;99226.66;5106358;28;20366;-60
2023/04/27 08:34:41;;;;;;;0.50;0.50;;;;;;;16.32;59.79;99221.16;5103737;28;20233;-60
2023/04/27 08:37:08;;;;;;;0.50;0.50;;;;;;;16.32;58.58;99231.50;5104521;28;20305;-60
2023/04/27 08:39:35;;;;;;;0.40;0.40;;;;;;;16.43;59.39;99233.50;5102064;28;20213;-60
2023/04/27 08:42:01;;;;;;;0.47;0.47;;;;;;;16.52;60.70;99233.78;5104131;28;20252;-60
2023/04/27 08:44:29;;;;;;;0.60;0.60;;;;;;;16.62;59.58;99219.44;5102969;28;20211;-60
2023/04/27 08:46:57;;;;;;;0.40;0.40;;;;;;;16.73;60.98;99219.66;5104708;28;20958;-60
2023/04/27 08:49:23;;;;;;;0.60;0.60;;;;;;;16.84;59.15;99213.00;5103218;28;20209;-60
2023/04/27 08:51:51;;;;;;;0.50;0.50;;;;;;;16.96;56.14;99217.50;5101857;28;20960;-60
2023/04/27 08:54:19;;;;;;;0.43;0.43;;;;;;;17.06;56.43;99213.44;5103366;28;21067;-60
2023/04/27 08:56:46;;;;;;;0.43;0.43;;;;;;;17.09;57.02;99214.06;5102821;28;20199;-59
2023/04/27 08:59:16;;;;;;;0.40;0.40;;;;;;;16.97;57.06;99214.78;5103052;28;20560;-59
2023/04/27 09:01:47;;;;;;;0.50;0.50;;;;;;;17.22;56.45;99214.19;5101124;28;20210;-60
2023/04/27 09:04:15;;;;;;;0.60;0.60;;;;;;;17.27;54.51;99202.63;5105628;28;20199;-60
2023/04/27 09:06:42;;;;;;;0.50;0.50;;;;;;;17.32;53.90;99204.91;5102241;28;20295;-60
2023/04/27 09:09:11;;;;;;;0.57;0.57;;;;;;;17.33;53.50;99206.59;5094804;28;20211;-60
2023/04/27 09:11:39;;;;;;;0.57;0.57;;;;;;;17.55;58.04;99206.97;5104794;28;20213;-61
2023/04/27 09:14:16;;;;;;;0.50;0.50;;;;;;;17.60;55.47;99210.13;5105226;28;20195;-60
2023/04/27 09:16:43;;;;;;;0.50;0.50;;;;;;;17.92;56.48;99191.72;5099499;28;20199;-60
2023/04/27 09:19:10;;;;;;;0.50;0.50;;;;;;;18.31;56.12;99202.97;5106422;28;20295;-59
2023/04/27 09:21:37;;;;;;;0.50;0.50;;;;;;;18.69;57.61;99197.06;5105311;28;20664;-60
2023/04/27 09:24:12;;;;;;;0.50;0.50;;;;;;;19.00;52.88;99199.25;5108916;28;20208;-60
2023/04/27 09:26:40;;;;;;;0.60;0.60;;;;;;;19.31;49.74;99191.03;5107395;28;20200;-60
2023/04/27 09:29:07;;;;;;;0.50;0.50;;;;;;;19.72;53.16;99189.94;5104188;28;20208;-60
2023/04/27 09:31:35;;;;;;;0.40;0.40;;;;;;;19.88;55.99;99191.34;5105114;28;20261;-59
2023/04/27 09:34:03;;;;;;;0.40;0.40;;;;;;;19.54;50.84;99184.28;5096590;28;20202;-60
2023/04/27 09:36:31;;;;;;;0.50;0.50;;;;;;;19.39;49.41;99200.88;5103928;28;20293;-60
2023/04/27 09:38:58;;;;;;;0.50;0.50;;;;;;;19.39;50.57;99199.13;5105341;27;20235;-60
2023/04/27 09:41:27;;;;;;;0.80;0.80;;;;;;;19.58;49.54;99188.28;5107387;28;20262;-61
2023/04/27 09:43:55;;;;;;;0.40;0.40;;;;;;;19.73;48.62;99192.44;5106142;28;20640;-60
2023/04/27 09:46:23;;;;;;;0.50;0.50;;;;;;;19.62;51.89;99189.75;5109684;28;20559;-60
2023/04/27 09:48:51;;;;;;;0.40;0.40;;;;;;;19.72;51.45;99195.97;5106972;28;20226;-60
2023/04/27 09:51:18;;;;;;;0.40;0.40;;;;;;;19.83;52.79;99190.84;5108448;28;20286;-59
2023/04/27 09:53:49;;;;;;;0.43;0.43;;;;;;;19.87;52.59;99189.66;5105989;28;20196;-59
2023/04/27 09:56:37;;;;;;;0.50;0.50;;;;;;;19.46;49.74;99193.53;5103641;28;20201;-59
2023/04/27 09:59:18;;;;;;;0.40;0.40;;;;;;;19.45;51.39;99169.28;5104742;28;20254;-59
2023/04/27 10:01:47;;;;;;;0.40;0.40;;;;;;;19.54;50.79;99186.03;5105933;28;20224;-59
2023/04/27 10:04:30;;;;;;;0.53;0.53;;;;;;;19.37;48.30;99176.78;5106987;28;20590;-60
2023/04/27 10:07:01;;;;;;;0.50;0.50;;;;;;;19.42;48.89;99184.31;5101327;28;20223;-59
2023/04/27 10:09:35;;;;;;;0.33;0.33;;;;;;;19.37;49.04;99192.38;5102640;28;20228;-60
2023/04/27 10:12:16;;;;;;;0.40;0.40;;;;;;;19.37;49.43;99185.41;5107818;28;20225;-60
2023/04/27 10:14:51;;;;;;;0.40;0.40;;;;;;;19.06;49.66;99185.03;5105669;28;20201;-60
2023/04/27 10:17:19;;;;;;;0.40;0.40;;;;;;;18.72;49.97;99187.28;5105299;28;20213;-60
2023/04/27 10:19:56;;;;;;;0.50;0.50;;;;;;;18.58;51.30;99189.97;5105054;28;20210;-60
2023/04/27 10:22:24;;;;;;;0.50;0.50;;;;;;;18.66;51.86;99203.28;5106909;28;20870;-59
2023/04/27 10:24:51;;;;;;;0.40;0.40;;;;;;;18.65;50.28;99191.22;5105171;28;20195;-60
2023/04/27 10:27:22;;;;;;;0.50;0.50;;;;;;;18.59;53.38;99196.81;5104557;28;20223;-60
2023/04/27 10:29:50;;;;;;;0.43;0.43;;;;;;;18.56;51.50;99186.66;5103824;28;20962;-59
2023/04/27 10:32:22;;;;;;;0.40;0.40;;;;;;;18.70;54.50;99193.53;5106113;28;21764;-59
2023/04/27 10:34:49;;;;;;;0.60;0.60;;;;;;;18.78;52.57;99201.63;5104802;28;20199;-59
2023/04/27 10:37:20;;;;;;;0.30;0.30;;;;;;;18.81;49.53;99199.66;5105214;28;20202;-59
2023/04/27 10:39:47;;;;;;;0.50;0.50;;;;;;;18.85;51.45;99195.94;5103991;28;20742;-59
2023/04/27 10:42:14;;;;;;;0.50;0.50;;;;;;;18.93;48.90;99204.97;5102623;28;20203;-60
2023/04/27 10:44:42;;;;;;;0.50;0.50;;;;;;;18.83;50.10;99196.97;5104031;28;20645;-59
2023/04/27 10:47:17;;;;;;;0.50;0.50;;;;;;;18.82;49.89;99203.09;5102039;28;20227;-59
2023/04/27 10:49:44;;;;;;;0.60;0.60;;;;;;;18.91;48.71;99202.47;5106183;28;20210;-59
2023/04/27 10:52:11;;;;;;;0.40;0.40;;;;;;;19.00;48.89;99203.63;5103622;28;20351;-59
2023/04/27 10:54:38;;;;;;;0.50;0.50;;;;;;;18.86;48.69;99202.81;5104824;28;20203;-59
2023/04/27 10:57:07;;;;;;;0.50;0.50;;;;;;;19.01;50.17;99207.88;5097617;28;20581;-59
2023/04/27 10:59:35;;;;;;;0.50;0.50;;;;;;;18.93;48.12;99210.19;5101100;28;20195;-59
2023/04/27 11:02:04;;;;;;;0.40;0.40;;;;;;;18.96;48.89;99202.19;5104442;28;20338;-59
2023/04/27 11:04:41;;;;;;;0.50;0.50;;;;;;;19.01;49.09;99203.50;5104318;28;20207;-59
2023/04/27 11:07:09;;;;;;;0.40;0.40;;;;;;;19.00;48.52;99208.84;5103887;28;20240;-59
2023/04/27 11:09:36;;;;;;;0.40;0.40;;;;;;;19.05;49.65;99198.94;5099607;28;20679;-60
2023/04/27 11:12:06;;;;;;;0.50;0.50;;;;;;;19.07;47.89;99207.47;5103298;28;20660;-60
2023/04/27 11:14:35;;;;;;;0.50;0.50;;;;;;;19.05;45.68;99204.16;5101012;28;20207;-60
2023/04/27 11:17:07;;;;;;;0.43;0.43;;;;;;;18.74;43.02;99205.38;5107106;28;20203;-60
2023/04/27 11:19:45;;;;;;;0.50;0.50;;;;;;;18.75;45.01;99207.88;5106624;28;20199;-60
2023/04/27 11:22:12;;;;;;;0.50;0.50;;;;;;;18.66;45.51;99205.88;5103419;28;20206;-60
2023/04/27 11:24:47;;;;;;;0.40;0.40;;;;;;;18.60;43.82;99198.50;5102944;28;20222;-60
2023/04/27 11:27:14;;;;;;;0.40;0.40;;;;;;;18.63;44.32;99208.69;5100427;28;20285;-61
2023/04/27 11:29:41;;;;;;;0.50;0.50;;;;;;;18.72;44.90;99208.06;5097820;28;20273;-60
2023/04/27 11:32:19;;;;;;;0.40;0.40;;;;;;;18.84;45.11;99212.44;5104126;28;20204;-60
2023/04/27 11:34:50;;;;;;;0.40;0.40;;;;;;;18.91;44.48;99217.22;5102078;28;20195;-60
2023/04/27 11:37:22;;;;;;;0.50;0.50;;;;;;;19.01;44.76;99215.66;5102021;28;20583;-60